sensor_id;sensor_type;location;lat;lon;timestamp;temperature;humidity
2439;DHT22;14509;47.992;7.848;2022-09-03T00:01:47;22.10;57.70
2439;DHT22;14509;47.992;7.848;2022-09-03T00:03:54;22.10;57.60
2439;DHT22;14509;47.992;7.848;2022-09-03T00:06:07;22.10;57.70
2439;DHT22;14509;47.992;7.848;2022-09-03T00:08:15;22.20;57.80
2439;DHT22;14509;47.992;7.848;2022-09-03T00:10:26;22.20;57.80
2439;DHT22;14509;47.992;7.848;2022-09-03T00:12:32;22.20;57.70
2439;DHT22;14509;47.992;7.848;2022-09-03T00:14:39;22.30;57.60
2439;DHT22;14509;47.992;7.848;2022-09-03T00:16:45;22.30;57.50
2439;DHT22;14509;47.992;7.848;2022-09-03T00:18:51;22.40;57.40
2439;DHT22;14509;47.992;7.848;2022-09-03T00:20:56;22.40;57.30
2439;DHT22;14509;47.992;7.848;2022-09-03T00:23:05;22.40;57.20
2439;DHT22;14509;47.992;7.848;2022-09-03T00:25:12;22.40;57.10
2439;DHT22;14509;47.992;7.848;2022-09-03T00:27:27;22.50;56.90
2439;DHT22;14509;47.992;7.848;2022-09-03T00:29:36;22.50;56.70
2439;DHT22;14509;47.992;7.848;2022-09-03T00:31:42;22.50;56.50
2439;DHT22;14509;47.992;7.848;2022-09-03T00:33:47;22.50;56.30
2439;DHT22;14509;47.992;7.848;2022-09-03T00:36:07;22.50;56.00
2439;DHT22;14509;47.992;7.848;2022-09-03T00:38:11;22.60;55.80
2439;DHT22;14509;47.992;7.848;2022-09-03T00:40:29;22.60;55.50
2439;DHT22;14509;47.992;7.848;2022-09-03T00:42:44;22.60;55.20
2439;DHT22;14509;47.992;7.848;2022-09-03T00:45:06;22.60;55.10
2439;DHT22;14509;47.992;7.848;2022-09-03T00:47:12;22.60;54.90
2439;DHT22;14509;47.992;7.848;2022-09-03T00:49:27;22.50;54.60
2439;DHT22;14509;47.992;7.848;2022-09-03T00:51:40;22.50;54.50
2439;DHT22;14509;47.992;7.848;2022-09-03T00:53:51;22.50;54.40
2439;DHT22;14509;47.992;7.848;2022-09-03T00:56:02;22.50;54.20
2439;DHT22;14509;47.992;7.848;2022-09-03T00:58:16;22.50;54.10
2439;DHT22;14509;47.992;7.848;2022-09-03T01:00:22;22.50;54.00
2439;DHT22;14509;47.992;7.848;2022-09-03T01:02:29;22.50;53.80
2439;DHT22;14509;47.992;7.848;2022-09-03T01:04:42;22.50;53.60
2439;DHT22;14509;47.992;7.848;2022-09-03T01:06:52;22.50;53.50
2439;DHT22;14509;47.992;7.848;2022-09-03T01:09:06;22.50;53.40
2439;DHT22;14509;47.992;7.848;2022-09-03T01:11:20;22.50;53.30
2439;DHT22;14509;47.992;7.848;2022-09-03T01:13:29;22.60;53.20
2439;DHT22;14509;47.992;7.848;2022-09-03T01:15:43;22.50;52.90
2439;DHT22;14509;47.992;7.848;2022-09-03T01:17:58;22.50;52.70
2439;DHT22;14509;47.992;7.848;2022-09-03T01:20:25;22.50;52.40
2439;DHT22;14509;47.992;7.848;2022-09-03T01:22:46;22.50;52.30
2439;DHT22;14509;47.992;7.848;2022-09-03T01:25:11;22.50;52.30
2439;DHT22;14509;47.992;7.848;2022-09-03T01:27:21;22.50;52.20
2439;DHT22;14509;47.992;7.848;2022-09-03T01:29:31;22.50;52.20
2439;DHT22;14509;47.992;7.848;2022-09-03T01:31:42;22.40;52.10
2439;DHT22;14509;47.992;7.848;2022-09-03T01:33:51;22.40;52.10
2439;DHT22;14509;47.992;7.848;2022-09-03T01:36:02;22.40;52.20
2439;DHT22;14509;47.992;7.848;2022-09-03T01:38:15;22.40;52.30
2439;DHT22;14509;47.992;7.848;2022-09-03T01:40:28;22.30;52.30
2439;DHT22;14509;47.992;7.848;2022-09-03T01:42:41;22.40;52.50
2439;DHT22;14509;47.992;7.848;2022-09-03T01:45:02;22.40;52.60
2439;DHT22;14509;47.992;7.848;2022-09-03T01:47:15;22.40;52.50
2439;DHT22;14509;47.992;7.848;2022-09-03T01:49:23;22.40;52.50
2439;DHT22;14509;47.992;7.848;2022-09-03T01:51:28;22.40;52.40
2439;DHT22;14509;47.992;7.848;2022-09-03T01:53:40;22.50;52.40
2439;DHT22;14509;47.992;7.848;2022-09-03T01:55:57;22.40;52.30
2439;DHT22;14509;47.992;7.848;2022-09-03T01:58:10;22.60;52.30
2439;DHT22;14509;47.992;7.848;2022-09-03T02:00:17;22.50;52.10
2439;DHT22;14509;47.992;7.848;2022-09-03T02:02:22;22.50;52.00
2439;DHT22;14509;47.992;7.848;2022-09-03T02:04:26;22.50;52.00
2439;DHT22;14509;47.992;7.848;2022-09-03T02:06:28;22.50;52.00
2439;DHT22;14509;47.992;7.848;2022-09-03T02:08:31;22.50;52.00
2439;DHT22;14509;47.992;7.848;2022-09-03T02:10:38;22.70;52.00
2439;DHT22;14509;47.992;7.848;2022-09-03T02:12:44;22.50;51.90
2439;DHT22;14509;47.992;7.848;2022-09-03T02:14:47;22.50;51.80
2439;DHT22;14509;47.992;7.848;2022-09-03T02:16:50;22.50;51.90
2439;DHT22;14509;47.992;7.848;2022-09-03T02:18:54;22.50;51.90
2439;DHT22;14509;47.992;7.848;2022-09-03T02:20:59;22.50;52.00
2439;DHT22;14509;47.992;7.848;2022-09-03T02:23:01;23.00;52.50
2439;DHT22;14509;47.992;7.848;2022-09-03T02:25:04;22.50;52.20
2439;DHT22;14509;47.992;7.848;2022-09-03T02:27:06;22.50;52.30
2439;DHT22;14509;47.992;7.848;2022-09-03T02:29:09;22.60;52.40
2439;DHT22;14509;47.992;7.848;2022-09-03T02:31:11;22.60;52.40
2439;DHT22;14509;47.992;7.848;2022-09-03T02:33:14;22.60;52.40
2439;DHT22;14509;47.992;7.848;2022-09-03T02:35:17;22.60;52.30
2439;DHT22;14509;47.992;7.848;2022-09-03T02:37:19;22.70;52.20
2439;DHT22;14509;47.992;7.848;2022-09-03T02:39:20;22.60;52.00
2439;DHT22;14509;47.992;7.848;2022-09-03T02:41:22;22.70;52.00
2439;DHT22;14509;47.992;7.848;2022-09-03T02:43:30;22.70;51.90
2439;DHT22;14509;47.992;7.848;2022-09-03T02:45:36;22.70;51.90
2439;DHT22;14509;47.992;7.848;2022-09-03T02:47:43;22.70;51.90
2439;DHT22;14509;47.992;7.848;2022-09-03T02:49:49;22.80;52.00
2439;DHT22;14509;47.992;7.848;2022-09-03T02:51:51;22.80;51.80
2439;DHT22;14509;47.992;7.848;2022-09-03T02:53:53;22.80;51.70
2439;DHT22;14509;47.992;7.848;2022-09-03T02:55:57;22.90;51.70
2439;DHT22;14509;47.992;7.848;2022-09-03T02:57:59;23.00;51.80
2439;DHT22;14509;47.992;7.848;2022-09-03T03:00:03;22.80;51.70
2439;DHT22;14509;47.992;7.848;2022-09-03T03:02:05;22.80;52.00
2439;DHT22;14509;47.992;7.848;2022-09-03T03:04:07;22.70;52.10
2439;DHT22;14509;47.992;7.848;2022-09-03T03:06:10;22.70;52.30
2439;DHT22;14509;47.992;7.848;2022-09-03T03:08:14;22.70;52.60
2439;DHT22;14509;47.992;7.848;2022-09-03T03:10:16;22.60;52.70
2439;DHT22;14509;47.992;7.848;2022-09-03T03:12:18;22.60;52.80
2439;DHT22;14509;47.992;7.848;2022-09-03T03:14:21;22.60;52.90
2439;DHT22;14509;47.992;7.848;2022-09-03T03:16:23;22.60;53.00
2439;DHT22;14509;47.992;7.848;2022-09-03T03:18:25;22.60;53.20
2439;DHT22;14509;47.992;7.848;2022-09-03T03:20:27;22.60;53.40
2439;DHT22;14509;47.992;7.848;2022-09-03T03:22:30;22.60;53.40
2439;DHT22;14509;47.992;7.848;2022-09-03T03:24:32;22.60;53.60
2439;DHT22;14509;47.992;7.848;2022-09-03T03:26:34;22.60;53.60
2439;DHT22;14509;47.992;7.848;2022-09-03T03:28:36;22.60;53.70
2439;DHT22;14509;47.992;7.848;2022-09-03T03:30:39;22.60;53.80
2439;DHT22;14509;47.992;7.848;2022-09-03T03:32:42;22.70;53.80
2439;DHT22;14509;47.992;7.848;2022-09-03T03:34:44;22.70;53.80
2439;DHT22;14509;47.992;7.848;2022-09-03T03:36:46;22.70;53.80
2439;DHT22;14509;47.992;7.848;2022-09-03T03:38:52;22.70;53.80
2439;DHT22;14509;47.992;7.848;2022-09-03T03:40:54;22.80;54.00
2439;DHT22;14509;47.992;7.848;2022-09-03T03:42:56;22.70;53.90
2439;DHT22;14509;47.992;7.848;2022-09-03T03:44:58;22.70;54.00
2439;DHT22;14509;47.992;7.848;2022-09-03T03:47:02;22.70;54.00
2439;DHT22;14509;47.992;7.848;2022-09-03T03:49:06;22.70;54.10
2439;DHT22;14509;47.992;7.848;2022-09-03T03:51:10;22.70;54.20
2439;DHT22;14509;47.992;7.848;2022-09-03T03:53:12;22.70;54.20
2439;DHT22;14509;47.992;7.848;2022-09-03T03:55:15;22.70;54.10
2439;DHT22;14509;47.992;7.848;2022-09-03T03:57:18;22.70;54.10
2439;DHT22;14509;47.992;7.848;2022-09-03T03:59:20;22.90;54.20
2439;DHT22;14509;47.992;7.848;2022-09-03T04:01:23;22.80;54.00
2439;DHT22;14509;47.992;7.848;2022-09-03T04:03:25;22.80;54.00
2439;DHT22;14509;47.992;7.848;2022-09-03T04:05:27;22.80;54.00
2439;DHT22;14509;47.992;7.848;2022-09-03T04:07:28;22.90;54.00
2439;DHT22;14509;47.992;7.848;2022-09-03T04:09:30;22.80;54.00
2439;DHT22;14509;47.992;7.848;2022-09-03T04:11:33;22.90;54.10
2439;DHT22;14509;47.992;7.848;2022-09-03T04:13:38;22.80;54.10
2439;DHT22;14509;47.992;7.848;2022-09-03T04:15:39;22.80;54.10
2439;DHT22;14509;47.992;7.848;2022-09-03T04:17:41;22.80;54.10
2439;DHT22;14509;47.992;7.848;2022-09-03T04:19:43;22.80;54.10
2439;DHT22;14509;47.992;7.848;2022-09-03T04:21:47;22.70;54.00
2439;DHT22;14509;47.992;7.848;2022-09-03T04:23:50;22.70;54.20
2439;DHT22;14509;47.992;7.848;2022-09-03T04:25:52;22.70;54.30
2439;DHT22;14509;47.992;7.848;2022-09-03T04:27:56;22.60;54.40
2439;DHT22;14509;47.992;7.848;2022-09-03T04:29:57;22.60;54.50
2439;DHT22;14509;47.992;7.848;2022-09-03T04:31:59;22.70;54.70
2439;DHT22;14509;47.992;7.848;2022-09-03T04:34:19;22.60;54.80
2439;DHT22;14509;47.992;7.848;2022-09-03T04:36:22;22.60;54.90
2439;DHT22;14509;47.992;7.848;2022-09-03T04:38:24;22.60;54.90
2439;DHT22;14509;47.992;7.848;2022-09-03T04:40:26;22.60;54.80
2439;DHT22;14509;47.992;7.848;2022-09-03T04:42:28;22.60;54.70
2439;DHT22;14509;47.992;7.848;2022-09-03T04:44:31;22.70;54.80
2439;DHT22;14509;47.992;7.848;2022-09-03T04:46:36;22.70;54.50
2439;DHT22;14509;47.992;7.848;2022-09-03T04:48:40;22.80;54.40
2439;DHT22;14509;47.992;7.848;2022-09-03T04:50:42;22.90;54.30
2439;DHT22;14509;47.992;7.848;2022-09-03T04:52:44;22.90;54.00
2439;DHT22;14509;47.992;7.848;2022-09-03T04:54:46;23.20;54.10
2439;DHT22;14509;47.992;7.848;2022-09-03T04:56:47;23.00;53.80
2439;DHT22;14509;47.992;7.848;2022-09-03T04:58:53;23.60;54.20
2439;DHT22;14509;47.992;7.848;2022-09-03T05:00:57;23.00;53.70
2439;DHT22;14509;47.992;7.848;2022-09-03T05:02:59;23.00;53.60
2439;DHT22;14509;47.992;7.848;2022-09-03T05:05:02;23.00;53.70
2439;DHT22;14509;47.992;7.848;2022-09-03T05:07:04;22.90;53.60
2439;DHT22;14509;47.992;7.848;2022-09-03T05:09:06;23.00;53.80
2439;DHT22;14509;47.992;7.848;2022-09-03T05:11:08;22.90;53.80
2439;DHT22;14509;47.992;7.848;2022-09-03T05:13:10;22.90;53.90
2439;DHT22;14509;47.992;7.848;2022-09-03T05:15:12;22.80;53.90
2439;DHT22;14509;47.992;7.848;2022-09-03T05:17:15;22.80;54.10
2439;DHT22;14509;47.992;7.848;2022-09-03T05:19:17;22.80;54.20
2439;DHT22;14509;47.992;7.848;2022-09-03T05:21:19;22.80;54.30
2439;DHT22;14509;47.992;7.848;2022-09-03T05:23:21;22.90;54.30
2439;DHT22;14509;47.992;7.848;2022-09-03T05:25:23;22.90;54.40
2439;DHT22;14509;47.992;7.848;2022-09-03T05:27:25;22.80;54.30
2439;DHT22;14509;47.992;7.848;2022-09-03T05:29:27;22.80;54.20
2439;DHT22;14509;47.992;7.848;2022-09-03T05:31:30;22.90;54.20
2439;DHT22;14509;47.992;7.848;2022-09-03T05:33:34;23.50;54.60
2439;DHT22;14509;47.992;7.848;2022-09-03T05:35:37;23.00;54.10
2439;DHT22;14509;47.992;7.848;2022-09-03T05:37:40;23.00;53.90
2439;DHT22;14509;47.992;7.848;2022-09-03T05:39:42;23.10;53.80
2439;DHT22;14509;47.992;7.848;2022-09-03T05:41:44;23.10;53.70
2439;DHT22;14509;47.992;7.848;2022-09-03T05:43:47;23.20;53.60
2439;DHT22;14509;47.992;7.848;2022-09-03T05:45:51;23.20;53.60
2439;DHT22;14509;47.992;7.848;2022-09-03T05:47:59;23.30;53.50
2439;DHT22;14509;47.992;7.848;2022-09-03T05:50:04;23.30;53.40
2439;DHT22;14509;47.992;7.848;2022-09-03T05:52:06;23.40;53.30
2439;DHT22;14509;47.992;7.848;2022-09-03T05:54:09;23.40;53.10
2439;DHT22;14509;47.992;7.848;2022-09-03T05:56:13;23.50;53.00
2439;DHT22;14509;47.992;7.848;2022-09-03T05:58:17;23.50;52.90
2439;DHT22;14509;47.992;7.848;2022-09-03T06:00:19;23.50;52.70
2439;DHT22;14509;47.992;7.848;2022-09-03T06:02:21;23.70;52.70
2439;DHT22;14509;47.992;7.848;2022-09-03T06:04:23;23.70;52.60
2439;DHT22;14509;47.992;7.848;2022-09-03T06:06:28;23.80;52.50
2439;DHT22;14509;47.992;7.848;2022-09-03T06:08:31;23.80;52.50
2439;DHT22;14509;47.992;7.848;2022-09-03T06:10:32;23.80;52.30
2439;DHT22;14509;47.992;7.848;2022-09-03T06:12:34;23.90;52.20
2439;DHT22;14509;47.992;7.848;2022-09-03T06:14:36;23.90;52.10
2439;DHT22;14509;47.992;7.848;2022-09-03T06:16:40;24.00;52.00
2439;DHT22;14509;47.992;7.848;2022-09-03T06:18:42;24.10;51.90
2439;DHT22;14509;47.992;7.848;2022-09-03T06:20:53;24.20;51.70
2439;DHT22;14509;47.992;7.848;2022-09-03T06:22:56;24.30;51.60
2439;DHT22;14509;47.992;7.848;2022-09-03T06:24:58;24.50;51.40
2439;DHT22;14509;47.992;7.848;2022-09-03T06:26:59;24.60;51.20
2439;DHT22;14509;47.992;7.848;2022-09-03T06:29:02;24.70;50.90
2439;DHT22;14509;47.992;7.848;2022-09-03T06:31:05;24.80;50.60
2439;DHT22;14509;47.992;7.848;2022-09-03T06:33:07;25.00;50.50
2439;DHT22;14509;47.992;7.848;2022-09-03T06:35:10;25.10;50.20
2439;DHT22;14509;47.992;7.848;2022-09-03T06:37:12;25.40;49.90
2439;DHT22;14509;47.992;7.848;2022-09-03T06:39:15;25.50;49.40
2439;DHT22;14509;47.992;7.848;2022-09-03T06:41:18;25.80;49.00
2439;DHT22;14509;47.992;7.848;2022-09-03T06:43:24;25.90;48.70
2439;DHT22;14509;47.992;7.848;2022-09-03T06:45:28;26.00;48.30
2439;DHT22;14509;47.992;7.848;2022-09-03T06:47:30;26.10;48.00
2439;DHT22;14509;47.992;7.848;2022-09-03T06:49:32;26.20;47.70
2439;DHT22;14509;47.992;7.848;2022-09-03T06:51:34;26.30;47.50
2439;DHT22;14509;47.992;7.848;2022-09-03T06:53:39;26.40;47.10
2439;DHT22;14509;47.992;7.848;2022-09-03T06:55:42;26.50;47.10
2439;DHT22;14509;47.992;7.848;2022-09-03T06:57:45;26.50;46.60
2439;DHT22;14509;47.992;7.848;2022-09-03T06:59:46;26.60;46.50
2439;DHT22;14509;47.992;7.848;2022-09-03T07:01:49;26.70;46.40
2439;DHT22;14509;47.992;7.848;2022-09-03T07:03:53;26.70;46.20
2439;DHT22;14509;47.992;7.848;2022-09-03T07:05:59;26.80;46.00
2439;DHT22;14509;47.992;7.848;2022-09-03T07:08:02;26.90;45.80
2439;DHT22;14509;47.992;7.848;2022-09-03T07:10:05;27.90;46.20
2439;DHT22;14509;47.992;7.848;2022-09-03T07:12:08;26.90;45.50
2439;DHT22;14509;47.992;7.848;2022-09-03T07:14:12;27.20;45.60
2439;DHT22;14509;47.992;7.848;2022-09-03T07:16:16;28.00;46.00
2439;DHT22;14509;47.992;7.848;2022-09-03T07:18:18;27.30;45.30
2439;DHT22;14509;47.992;7.848;2022-09-03T07:20:20;27.50;45.20
2439;DHT22;14509;47.992;7.848;2022-09-03T07:22:22;27.70;45.00
2439;DHT22;14509;47.992;7.848;2022-09-03T07:24:24;27.90;44.70
2439;DHT22;14509;47.992;7.848;2022-09-03T07:26:29;28.00;44.20
2439;DHT22;14509;47.992;7.848;2022-09-03T07:28:34;28.00;43.60
2439;DHT22;14509;47.992;7.848;2022-09-03T07:30:36;28.00;43.40
2439;DHT22;14509;47.992;7.848;2022-09-03T07:32:38;28.00;43.30
2439;DHT22;14509;47.992;7.848;2022-09-03T07:34:40;28.30;43.50
2439;DHT22;14509;47.992;7.848;2022-09-03T07:36:44;28.10;43.30
2439;DHT22;14509;47.992;7.848;2022-09-03T07:38:47;28.10;42.80
2439;DHT22;14509;47.992;7.848;2022-09-03T07:40:56;28.40;42.60
2439;DHT22;14509;47.992;7.848;2022-09-03T07:42:59;28.70;42.20
2439;DHT22;14509;47.992;7.848;2022-09-03T07:45:05;28.70;41.60
2439;DHT22;14509;47.992;7.848;2022-09-03T07:47:09;28.90;41.50
2439;DHT22;14509;47.992;7.848;2022-09-03T07:49:12;29.10;41.20
2439;DHT22;14509;47.992;7.848;2022-09-03T07:51:14;29.30;40.50
2439;DHT22;14509;47.992;7.848;2022-09-03T07:53:17;29.50;39.60
2439;DHT22;14509;47.992;7.848;2022-09-03T07:55:20;29.60;39.20
2439;DHT22;14509;47.992;7.848;2022-09-03T07:57:22;29.80;38.60
2439;DHT22;14509;47.992;7.848;2022-09-03T07:59:24;29.90;38.30
2439;DHT22;14509;47.992;7.848;2022-09-03T08:01:28;30.10;37.80
2439;DHT22;14509;47.992;7.848;2022-09-03T08:03:32;30.20;37.50
2439;DHT22;14509;47.992;7.848;2022-09-03T08:05:35;30.30;37.20
2439;DHT22;14509;47.992;7.848;2022-09-03T08:07:37;30.40;36.80
2439;DHT22;14509;47.992;7.848;2022-09-03T08:09:39;30.30;37.00
2439;DHT22;14509;47.992;7.848;2022-09-03T08:11:42;30.40;37.00
2439;DHT22;14509;47.992;7.848;2022-09-03T08:13:45;30.50;36.90
2439;DHT22;14509;47.992;7.848;2022-09-03T08:15:53;30.60;36.90
2439;DHT22;14509;47.992;7.848;2022-09-03T08:17:56;30.70;36.80
2439;DHT22;14509;47.992;7.848;2022-09-03T08:20:00;30.50;36.90
2439;DHT22;14509;47.992;7.848;2022-09-03T08:22:01;30.50;37.20
2439;DHT22;14509;47.992;7.848;2022-09-03T08:24:04;30.50;37.40
2439;DHT22;14509;47.992;7.848;2022-09-03T08:26:06;30.40;37.40
2439;DHT22;14509;47.992;7.848;2022-09-03T08:28:08;30.40;37.60
2439;DHT22;14509;47.992;7.848;2022-09-03T08:30:10;30.30;37.70
2439;DHT22;14509;47.992;7.848;2022-09-03T08:32:12;30.20;38.20
2439;DHT22;14509;47.992;7.848;2022-09-03T08:34:16;30.10;37.60
2439;DHT22;14509;47.992;7.848;2022-09-03T08:36:19;30.10;38.00
2439;DHT22;14509;47.992;7.848;2022-09-03T08:38:21;29.80;38.30
2439;DHT22;14509;47.992;7.848;2022-09-03T08:40:24;29.50;38.70
2439;DHT22;14509;47.992;7.848;2022-09-03T08:42:36;29.40;39.00
2439;DHT22;14509;47.992;7.848;2022-09-03T08:44:44;29.30;39.30
2439;DHT22;14509;47.992;7.848;2022-09-03T08:46:50;29.10;39.70
2439;DHT22;14509;47.992;7.848;2022-09-03T08:48:54;29.10;40.10
2439;DHT22;14509;47.992;7.848;2022-09-03T08:51:00;28.90;40.40
2439;DHT22;14509;47.992;7.848;2022-09-03T08:53:10;28.70;40.70
2439;DHT22;14509;47.992;7.848;2022-09-03T08:55:17;28.60;41.10
2439;DHT22;14509;47.992;7.848;2022-09-03T08:57:21;28.50;41.40
2439;DHT22;14509;47.992;7.848;2022-09-03T08:59:23;28.60;41.90
2439;DHT22;14509;47.992;7.848;2022-09-03T09:01:31;28.60;42.30
2439;DHT22;14509;47.992;7.848;2022-09-03T09:03:42;28.70;42.70
2439;DHT22;14509;47.992;7.848;2022-09-03T09:05:50;28.80;42.80
2439;DHT22;14509;47.992;7.848;2022-09-03T09:08:00;28.80;42.90
2439;DHT22;14509;47.992;7.848;2022-09-03T09:10:11;28.80;42.60
2439;DHT22;14509;47.992;7.848;2022-09-03T09:12:21;28.70;42.40
2439;DHT22;14509;47.992;7.848;2022-09-03T09:14:33;28.70;42.70
2439;DHT22;14509;47.992;7.848;2022-09-03T09:16:39;28.60;42.90
2439;DHT22;14509;47.992;7.848;2022-09-03T09:18:55;28.70;43.10
2439;DHT22;14509;47.992;7.848;2022-09-03T09:21:06;28.40;43.00
2439;DHT22;14509;47.992;7.848;2022-09-03T09:23:13;28.30;43.20
2439;DHT22;14509;47.992;7.848;2022-09-03T09:25:18;28.10;43.70
2439;DHT22;14509;47.992;7.848;2022-09-03T09:27:20;28.00;44.50
2439;DHT22;14509;47.992;7.848;2022-09-03T09:29:24;27.80;45.10
2439;DHT22;14509;47.992;7.848;2022-09-03T09:31:28;27.70;45.80
2439;DHT22;14509;47.992;7.848;2022-09-03T09:33:31;27.50;46.70
2439;DHT22;14509;47.992;7.848;2022-09-03T09:35:33;27.40;47.10
2439;DHT22;14509;47.992;7.848;2022-09-03T09:37:46;27.20;47.80
2439;DHT22;14509;47.992;7.848;2022-09-03T09:39:57;26.90;50.10
2439;DHT22;14509;47.992;7.848;2022-09-03T09:42:00;26.40;50.20
2439;DHT22;14509;47.992;7.848;2022-09-03T09:44:07;25.90;50.40
2439;DHT22;14509;47.992;7.848;2022-09-03T09:46:13;25.50;52.40
2439;DHT22;14509;47.992;7.848;2022-09-03T09:48:20;25.70;54.30
2439;DHT22;14509;47.992;7.848;2022-09-03T09:50:23;24.60;55.20
2439;DHT22;14509;47.992;7.848;2022-09-03T09:52:26;24.50;55.90
2439;DHT22;14509;47.992;7.848;2022-09-03T09:54:29;24.20;56.60
2439;DHT22;14509;47.992;7.848;2022-09-03T09:56:33;24.00;57.20
2439;DHT22;14509;47.992;7.848;2022-09-03T09:58:35;24.30;58.10
2439;DHT22;14509;47.992;7.848;2022-09-03T10:00:36;23.80;58.10
2439;DHT22;14509;47.992;7.848;2022-09-03T10:02:40;23.60;58.90
2439;DHT22;14509;47.992;7.848;2022-09-03T10:04:47;23.40;60.20
2439;DHT22;14509;47.992;7.848;2022-09-03T10:06:53;23.30;62.10
2439;DHT22;14509;47.992;7.848;2022-09-03T10:09:05;23.10;63.30
2439;DHT22;14509;47.992;7.848;2022-09-03T10:11:07;22.90;63.60
2439;DHT22;14509;47.992;7.848;2022-09-03T10:13:13;22.80;64.10
2439;DHT22;14509;47.992;7.848;2022-09-03T10:15:23;22.60;64.20
2439;DHT22;14509;47.992;7.848;2022-09-03T10:17:29;22.50;64.20
2439;DHT22;14509;47.992;7.848;2022-09-03T10:19:42;22.30;64.70
2439;DHT22;14509;47.992;7.848;2022-09-03T10:22:09;22.40;65.30
2439;DHT22;14509;47.992;7.848;2022-09-03T10:24:27;21.80;65.20
2439;DHT22;14509;47.992;7.848;2022-09-03T10:26:31;21.60;65.70
2439;DHT22;14509;47.992;7.848;2022-09-03T10:28:37;21.60;66.30
2439;DHT22;14509;47.992;7.848;2022-09-03T10:30:58;21.50;66.60
2439;DHT22;14509;47.992;7.848;2022-09-03T10:33:07;21.50;67.00
2439;DHT22;14509;47.992;7.848;2022-09-03T10:35:20;21.40;66.90
2439;DHT22;14509;47.992;7.848;2022-09-03T10:37:31;21.40;67.40
2439;DHT22;14509;47.992;7.848;2022-09-03T10:39:46;21.40;67.80
2439;DHT22;14509;47.992;7.848;2022-09-03T10:42:00;21.40;68.20
2439;DHT22;14509;47.992;7.848;2022-09-03T10:44:21;21.40;68.50
2439;DHT22;14509;47.992;7.848;2022-09-03T10:46:26;21.50;68.80
2439;DHT22;14509;47.992;7.848;2022-09-03T10:48:43;21.70;70.00
2439;DHT22;14509;47.992;7.848;2022-09-03T10:50:52;21.70;69.30
2439;DHT22;14509;47.992;7.848;2022-09-03T10:53:06;21.80;68.90
2439;DHT22;14509;47.992;7.848;2022-09-03T10:55:18;22.00;68.00
2439;DHT22;14509;47.992;7.848;2022-09-03T10:57:29;21.90;67.30
2439;DHT22;14509;47.992;7.848;2022-09-03T10:59:45;22.10;67.40
2439;DHT22;14509;47.992;7.848;2022-09-03T11:01:57;22.40;67.80
2439;DHT22;14509;47.992;7.848;2022-09-03T11:04:20;22.00;67.40
2439;DHT22;14509;47.992;7.848;2022-09-03T11:06:26;22.10;67.60
2439;DHT22;14509;47.992;7.848;2022-09-03T11:08:31;22.80;68.30
2439;DHT22;14509;47.992;7.848;2022-09-03T11:10:38;22.30;68.10
2439;DHT22;14509;47.992;7.848;2022-09-03T11:12:44;22.40;68.70
2439;DHT22;14509;47.992;7.848;2022-09-03T11:14:52;22.70;69.80
2439;DHT22;14509;47.992;7.848;2022-09-03T11:17:00;23.00;68.80
2439;DHT22;14509;47.992;7.848;2022-09-03T11:19:06;23.30;69.20
2439;DHT22;14509;47.992;7.848;2022-09-03T11:21:12;23.40;67.90
2439;DHT22;14509;47.992;7.848;2022-09-03T11:23:16;23.70;67.70
2439;DHT22;14509;47.992;7.848;2022-09-03T11:25:20;24.00;66.90
2439;DHT22;14509;47.992;7.848;2022-09-03T11:27:33;24.20;65.70
2439;DHT22;14509;47.992;7.848;2022-09-03T11:29:42;24.50;64.30
2439;DHT22;14509;47.992;7.848;2022-09-03T11:31:55;24.70;62.10
2439;DHT22;14509;47.992;7.848;2022-09-03T11:34:04;25.40;61.90
2439;DHT22;14509;47.992;7.848;2022-09-03T11:36:06;25.20;61.20
2439;DHT22;14509;47.992;7.848;2022-09-03T11:38:20;25.30;60.40
2439;DHT22;14509;47.992;7.848;2022-09-03T11:40:30;25.50;60.00
2439;DHT22;14509;47.992;7.848;2022-09-03T11:42:35;25.70;59.60
2439;DHT22;14509;47.992;7.848;2022-09-03T11:44:39;25.90;58.70
2439;DHT22;14509;47.992;7.848;2022-09-03T11:46:57;26.00;56.60
2439;DHT22;14509;47.992;7.848;2022-09-03T11:49:09;25.90;57.30
2439;DHT22;14509;47.992;7.848;2022-09-03T11:51:31;26.40;57.20
2439;DHT22;14509;47.992;7.848;2022-09-03T11:53:35;26.60;56.10
2439;DHT22;14509;47.992;7.848;2022-09-03T11:55:51;26.80;54.50
2439;DHT22;14509;47.992;7.848;2022-09-03T11:57:53;27.00;53.30
2439;DHT22;14509;47.992;7.848;2022-09-03T12:00:07;27.20;52.10
2439;DHT22;14509;47.992;7.848;2022-09-03T12:02:25;27.30;51.20
2439;DHT22;14509;47.992;7.848;2022-09-03T12:04:34;27.30;50.20
2439;DHT22;14509;47.992;7.848;2022-09-03T12:06:54;27.30;50.10
2439;DHT22;14509;47.992;7.848;2022-09-03T12:09:17;27.30;50.10
2439;DHT22;14509;47.992;7.848;2022-09-03T12:11:39;27.40;49.80
2439;DHT22;14509;47.992;7.848;2022-09-03T12:13:50;27.40;49.30
2439;DHT22;14509;47.992;7.848;2022-09-03T12:16:21;27.50;49.40
2439;DHT22;14509;47.992;7.848;2022-09-03T12:18:28;27.50;49.10
2439;DHT22;14509;47.992;7.848;2022-09-03T12:20:31;27.50;48.50
2439;DHT22;14509;47.992;7.848;2022-09-03T12:22:35;27.50;48.50
2439;DHT22;14509;47.992;7.848;2022-09-03T12:24:38;27.50;48.90
2439;DHT22;14509;47.992;7.848;2022-09-03T12:26:42;27.60;48.80
2439;DHT22;14509;47.992;7.848;2022-09-03T12:28:47;27.50;48.70
2439;DHT22;14509;47.992;7.848;2022-09-03T12:30:49;27.60;48.60
2439;DHT22;14509;47.992;7.848;2022-09-03T12:33:02;27.10;48.20
2439;DHT22;14509;47.992;7.848;2022-09-03T12:35:15;27.60;48.60
2439;DHT22;14509;47.992;7.848;2022-09-03T12:37:20;27.70;48.20
2439;DHT22;14509;47.992;7.848;2022-09-03T12:39:25;27.80;48.10
2439;DHT22;14509;47.992;7.848;2022-09-03T12:41:28;27.80;47.80
2439;DHT22;14509;47.992;7.848;2022-09-03T12:43:31;27.90;47.40
2439;DHT22;14509;47.992;7.848;2022-09-03T12:45:42;27.80;47.00
2439;DHT22;14509;47.992;7.848;2022-09-03T12:47:44;27.80;47.10
2439;DHT22;14509;47.992;7.848;2022-09-03T12:49:47;27.90;47.40
2439;DHT22;14509;47.992;7.848;2022-09-03T12:51:50;28.00;47.70
2439;DHT22;14509;47.992;7.848;2022-09-03T12:53:53;28.70;48.00
2439;DHT22;14509;47.992;7.848;2022-09-03T12:55:56;28.70;46.80
2439;DHT22;14509;47.992;7.848;2022-09-03T12:58:04;28.80;46.10
2439;DHT22;14509;47.992;7.848;2022-09-03T13:00:11;29.20;45.80
2439;DHT22;14509;47.992;7.848;2022-09-03T13:02:19;29.60;44.00
2439;DHT22;14509;47.992;7.848;2022-09-03T13:04:25;30.00;43.90
2439;DHT22;14509;47.992;7.848;2022-09-03T13:06:32;30.40;43.10
2439;DHT22;14509;47.992;7.848;2022-09-03T13:08:43;30.70;41.90
2439;DHT22;14509;47.992;7.848;2022-09-03T13:10:51;31.10;40.40
2439;DHT22;14509;47.992;7.848;2022-09-03T13:12:58;31.30;40.30
2439;DHT22;14509;47.992;7.848;2022-09-03T13:15:08;31.40;40.50
2439;DHT22;14509;47.992;7.848;2022-09-03T13:17:29;31.50;39.30
2439;DHT22;14509;47.992;7.848;2022-09-03T13:19:48;31.70;38.70
2439;DHT22;14509;47.992;7.848;2022-09-03T13:22:01;31.80;38.60
2439;DHT22;14509;47.992;7.848;2022-09-03T13:24:44;32.10;38.30
2439;DHT22;14509;47.992;7.848;2022-09-03T13:26:58;32.40;37.70
2439;DHT22;14509;47.992;7.848;2022-09-03T13:29:35;32.70;37.20
2439;DHT22;14509;47.992;7.848;2022-09-03T13:31:43;32.90;35.90